Time;durP1;ratioP1;P1;durP2;ratioP2;P2;SDS_P1;SDS_P2;PMS_P1;PMS_P2;Temp;Humidity;BMP_temperature;BMP_pressure;BME280_temperature;BME280_humidity;BME280_pressure;Samples;Min_cycle;Max_cycle;Signal;HPM_P1;HPM_P2
2023/09/21 00:02:16;;;;;;;0.10;0.10;;;;;;;;;;5124360;28;20403;-45
2023/09/21 00:04:42;;;;;;;0.10;0.10;;;;;;;;;;5124266;28;20047;-42
2023/09/21 00:07:07;;;;;;;0.10;0.10;;;;;;;;;;5124265;28;20103;-42
2023/09/21 00:09:33;;;;;;;0.10;0.10;;;;;;;;;;5126296;27;20095;-42
2023/09/21 00:11:58;;;;;;;0.10;0.10;;;;;;;;;;5127706;28;20432;-43
2023/09/21 00:14:24;;;;;;;0.10;0.10;;;;;;;;;;5128162;28;20267;-43
2023/09/21 00:16:49;;;;;;;0.10;0.10;;;;;;;;;;5128608;28;20054;-43
2023/09/21 00:19:16;;;;;;;0.10;0.10;;;;;;;;;;5127948;28;20116;-42
2023/09/21 00:21:43;;;;;;;0.10;0.10;;;;;;;;;;5127900;28;20043;-43
2023/09/21 00:24:12;;;;;;;0.10;0.10;;;;;;;;;;5127124;27;20490;-42
2023/09/21 00:26:37;;;;;;;0.10;0.10;;;;;;;;;;5129069;27;20572;-43
2023/09/21 00:29:06;;;;;;;0.10;0.10;;;;;;;;;;5128706;28;20051;-43
2023/09/21 00:31:31;;;;;;;0.10;0.10;;;;;;;;;;5128953;28;20043;-43
2023/09/21 00:33:58;;;;;;;0.10;0.10;;;;;;;;;;5128080;28;20503;-43
2023/09/21 00:36:24;;;;;;;0.10;0.10;;;;;;;;;;5122146;28;20078;-43
2023/09/21 00:38:51;;;;;;;0.20;0.20;;;;;;;;;;5128575;28;20295;-43
2023/09/21 00:41:18;;;;;;;0.10;0.10;;;;;;;;;;5128352;27;20062;-43
2023/09/21 00:43:44;;;;;;;0.10;0.10;;;;;;;;;;5126362;27;20126;-43
2023/09/21 00:46:09;;;;;;;0.10;0.10;;;;;;;;;;5127644;27;20657;-42
2023/09/21 00:48:38;;;;;;;0.10;0.10;;;;;;;;;;5127800;28;20053;-41
2023/09/21 00:51:07;;;;;;;0.10;0.10;;;;;;;;;;5128171;28;20043;-43
2023/09/21 00:53:33;;;;;;;0.10;0.10;;;;;;;;;;5127407;28;20051;-42
2023/09/21 00:56:03;;;;;;;0.10;0.10;;;;;;;;;;5127646;28;20332;-42
2023/09/21 00:58:29;;;;;;;0.10;0.10;;;;;;;;;;5127854;28;20043;-45
2023/09/21 01:00:55;;;;;;;0.10;0.10;;;;;;;;;;5127387;28;20384;-42
2023/09/21 01:03:22;;;;;;;0.10;0.10;;;;;;;;;;5126919;28;20050;-44
2023/09/21 01:05:50;;;;;;;0.10;0.10;;;;;;;;;;5127181;28;20043;-42
2023/09/21 01:08:18;;;;;;;0.10;0.10;;;;;;;;;;5127330;27;20066;-43
2023/09/21 01:10:49;;;;;;;0.10;0.10;;;;;;;;;;5128286;28;20195;-42
2023/09/21 01:13:16;;;;;;;0.10;0.10;;;;;;;;;;5126790;28;20115;-41
2023/09/21 01:15:45;;;;;;;0.00;0.00;;;;;;;;;;5128017;28;20047;-42
2023/09/21 01:18:11;;;;;;;0.10;0.10;;;;;;;;;;5127138;28;20046;-41
2023/09/21 01:20:37;;;;;;;0.10;0.10;;;;;;;;;;5127588;27;20039;-43
2023/09/21 01:23:10;;;;;;;0.10;0.10;;;;;;;;;;5126571;28;20065;-42
2023/09/21 01:25:39;;;;;;;0.10;0.10;;;;;;;;;;5129666;27;20497;-42
2023/09/21 01:28:06;;;;;;;0.10;0.10;;;;;;;;;;5120085;27;20047;-43
2023/09/21 01:30:32;;;;;;;0.10;0.10;;;;;;;;;;5127183;28;20078;-41
2023/09/21 01:33:01;;;;;;;0.10;0.10;;;;;;;;;;5124448;28;20081;-42
2023/09/21 01:35:28;;;;;;;0.10;0.10;;;;;;;;;;5125786;28;20472;-46
2023/09/21 01:37:54;;;;;;;0.10;0.10;;;;;;;;;;5126124;27;20377;-42
2023/09/21 01:40:20;;;;;;;0.10;0.10;;;;;;;;;;5127198;28;20452;-41
2023/09/21 01:42:48;;;;;;;0.10;0.10;;;;;;;;;;5125146;27;20476;-44
2023/09/21 01:45:14;;;;;;;0.10;0.10;;;;;;;;;;5126488;27;20100;-43
2023/09/21 01:47:40;;;;;;;0.10;0.10;;;;;;;;;;5124446;28;20279;-41
2023/09/21 01:50:10;;;;;;;0.10;0.10;;;;;;;;;;5125290;28;20140;-42
2023/09/21 01:52:36;;;;;;;0.10;0.10;;;;;;;;;;5125045;28;20074;-44
2023/09/21 01:55:03;;;;;;;0.10;0.10;;;;;;;;;;5126057;28;20045;-42
2023/09/21 01:57:28;;;;;;;0.10;0.10;;;;;;;;;;5125748;28;20236;-42
2023/09/21 01:59:54;;;;;;;0.10;0.10;;;;;;;;;;5126791;28;20065;-44
2023/09/21 02:02:20;;;;;;;0.10;0.10;;;;;;;;;;5124829;28;20406;-44
2023/09/21 02:04:47;;;;;;;0.10;0.10;;;;;;;;;;5126028;28;20244;-42
2023/09/21 02:07:14;;;;;;;0.10;0.10;;;;;;;;;;5126781;28;20326;-42
2023/09/21 02:09:40;;;;;;;0.10;0.10;;;;;;;;;;5126921;27;20047;-45
2023/09/21 02:12:06;;;;;;;0.10;0.10;;;;;;;;;;5126362;28;20049;-42
2023/09/21 02:14:32;;;;;;;0.10;0.10;;;;;;;;;;5126157;28;20051;-42
2023/09/21 02:16:58;;;;;;;0.10;0.10;;;;;;;;;;5126344;27;20066;-42
2023/09/21 02:19:23;;;;;;;0.10;0.10;;;;;;;;;;5125886;28;20054;-44
2023/09/21 02:21:50;;;;;;;0.10;0.10;;;;;;;;;;5125088;28;20054;-42
2023/09/21 02:24:15;;;;;;;0.10;0.10;;;;;;;;;;5127163;27;20071;-43
2023/09/21 02:26:42;;;;;;;0.10;0.10;;;;;;;;;;5125059;27;20126;-42
2023/09/21 02:29:12;;;;;;;0.10;0.10;;;;;;;;;;5125614;27;20047;-44
2023/09/21 02:31:42;;;;;;;0.10;0.10;;;;;;;;;;5125111;27;20043;-41
2023/09/21 02:34:09;;;;;;;0.10;0.10;;;;;;;;;;5125546;28;20070;-45
2023/09/21 02:36:35;;;;;;;0.10;0.10;;;;;;;;;;5125900;28;20402;-41
2023/09/21 02:39:01;;;;;;;0.10;0.10;;;;;;;;;;5126430;28;20104;-44
2023/09/21 02:41:26;;;;;;;0.10;0.10;;;;;;;;;;5127212;28;20059;-42
2023/09/21 02:43:53;;;;;;;0.10;0.10;;;;;;;;;;5125072;28;20047;-44
2023/09/21 02:46:19;;;;;;;0.10;0.10;;;;;;;;;;5126210;28;20084;-41
2023/09/21 02:48:46;;;;;;;0.10;0.10;;;;;;;;;;5125623;28;20047;-42
2023/09/21 02:51:12;;;;;;;0.10;0.10;;;;;;;;;;5126276;28;20047;-43
2023/09/21 02:53:38;;;;;;;0.10;0.10;;;;;;;;;;5125899;28;20391;-43
2023/09/21 02:56:07;;;;;;;0.10;0.10;;;;;;;;;;5125699;28;20061;-42
2023/09/21 02:58:33;;;;;;;0.10;0.10;;;;;;;;;;5125596;28;20074;-42
2023/09/21 03:00:59;;;;;;;0.10;0.10;;;;;;;;;;5126485;28;20400;-42
2023/09/21 03:03:30;;;;;;;0.10;0.10;;;;;;;;;;5125109;27;20138;-42
2023/09/21 03:05:56;;;;;;;0.10;0.10;;;;;;;;;;5125441;28;20049;-42
2023/09/21 03:08:22;;;;;;;0.10;0.10;;;;;;;;;;5125360;28;20050;-44
2023/09/21 03:10:50;;;;;;;0.10;0.10;;;;;;;;;;5125817;28;20415;-42
2023/09/21 03:13:18;;;;;;;0.10;0.10;;;;;;;;;;5124957;28;20467;-43
2023/09/21 03:15:45;;;;;;;0.10;0.10;;;;;;;;;;5125933;28;20055;-43
2023/09/21 03:18:10;;;;;;;0.10;0.10;;;;;;;;;;5126235;28;20055;-42
2023/09/21 03:20:38;;;;;;;0.10;0.10;;;;;;;;;;5126309;28;20160;-43
2023/09/21 03:23:05;;;;;;;0.10;0.10;;;;;;;;;;5120812;27;20051;-42
2023/09/21 03:25:33;;;;;;;0.10;0.10;;;;;;;;;;5124664;28;20047;-44
2023/09/21 03:27:59;;;;;;;0.10;0.10;;;;;;;;;;5125325;28;20137;-42
2023/09/21 03:30:26;;;;;;;0.10;0.10;;;;;;;;;;5125059;28;20492;-43
2023/09/21 03:32:51;;;;;;;0.10;0.10;;;;;;;;;;5124553;28;20051;-43
2023/09/21 03:35:18;;;;;;;0.10;0.10;;;;;;;;;;5125386;28;20054;-42
2023/09/21 03:37:48;;;;;;;0.10;0.10;;;;;;;;;;5125306;27;20261;-42
2023/09/21 03:40:14;;;;;;;0.10;0.10;;;;;;;;;;5125713;28;20082;-42
2023/09/21 03:42:41;;;;;;;0.10;0.10;;;;;;;;;;5125968;27;20078;-42
2023/09/21 03:45:07;;;;;;;0.10;0.10;;;;;;;;;;5127913;28;20051;-43
2023/09/21 03:47:33;;;;;;;0.10;0.10;;;;;;;;;;5128708;27;20169;-42
2023/09/21 03:50:00;;;;;;;0.10;0.10;;;;;;;;;;5128454;28;20047;-42
2023/09/21 03:52:27;;;;;;;0.10;0.10;;;;;;;;;;5128465;28;20051;-41
2023/09/21 03:54:53;;;;;;;0.10;0.10;;;;;;;;;;5128462;28;20485;-42
2023/09/21 03:57:19;;;;;;;0.10;0.10;;;;;;;;;;5128455;28;20049;-42
2023/09/21 03:59:46;;;;;;;0.10;0.10;;;;;;;;;;5129231;28;20178;-44
2023/09/21 04:02:13;;;;;;;0.10;0.10;;;;;;;;;;5129064;27;20050;-47
2023/09/21 04:04:39;;;;;;;0.10;0.10;;;;;;;;;;5127267;28;20495;-43
2023/09/21 04:07:06;;;;;;;0.10;0.10;;;;;;;;;;5127811;28;20291;-43
2023/09/21 04:09:32;;;;;;;0.10;0.10;;;;;;;;;;5128618;27;20054;-42
2023/09/21 04:11:58;;;;;;;0.10;0.10;;;;;;;;;;5129060;28;20134;-42
2023/09/21 04:14:24;;;;;;;0.10;0.10;;;;;;;;;;5128070;28;20078;-43
2023/09/21 04:16:50;;;;;;;0.10;0.10;;;;;;;;;;5129110;28;20433;-41
2023/09/21 04:19:15;;;;;;;0.10;0.10;;;;;;;;;;5128729;28;20051;-42
2023/09/21 04:21:42;;;;;;;0.10;0.10;;;;;;;;;;5126869;27;20360;-43
2023/09/21 04:24:09;;;;;;;0.10;0.10;;;;;;;;;;5127377;27;20051;-44
2023/09/21 04:26:35;;;;;;;0.10;0.10;;;;;;;;;;5127040;28;20043;-42
2023/09/21 04:29:00;;;;;;;0.10;0.10;;;;;;;;;;5128019;28;20051;-42
2023/09/21 04:31:26;;;;;;;0.10;0.10;;;;;;;;;;5128324;28;20475;-43
2023/09/21 04:33:52;;;;;;;0.10;0.10;;;;;;;;;;5126875;28;20133;-42
2023/09/21 04:36:17;;;;;;;0.10;0.10;;;;;;;;;;5127045;28;20047;-41
2023/09/21 04:38:44;;;;;;;0.10;0.10;;;;;;;;;;5127260;28;20073;-41
2023/09/21 04:41:14;;;;;;;0.10;0.10;;;;;;;;;;5127814;28;20058;-41
2023/09/21 04:43:40;;;;;;;0.10;0.10;;;;;;;;;;5125963;28;20074;-42
2023/09/21 04:46:06;;;;;;;0.10;0.10;;;;;;;;;;5126870;28;20094;-44
2023/09/21 04:48:33;;;;;;;0.10;0.10;;;;;;;;;;5126274;28;20050;-43
2023/09/21 04:50:59;;;;;;;0.10;0.10;;;;;;;;;;5126451;28;20054;-42
2023/09/21 04:53:27;;;;;;;0.10;0.10;;;;;;;;;;5112742;28;20411;-42
2023/09/21 04:55:52;;;;;;;0.10;0.10;;;;;;;;;;5125961;27;20070;-42
2023/09/21 04:58:20;;;;;;;0.10;0.10;;;;;;;;;;5126777;28;20388;-43
2023/09/21 05:00:45;;;;;;;0.10;0.10;;;;;;;;;;5119966;28;20054;-42
2023/09/21 05:03:14;;;;;;;0.10;0.10;;;;;;;;;;5124898;28;20138;-43
2023/09/21 05:05:40;;;;;;;0.10;0.10;;;;;;;;;;5117268;28;20043;-42
2023/09/21 05:08:05;;;;;;;0.10;0.10;;;;;;;;;;5124516;28;20100;-43
2023/09/21 05:10:31;;;;;;;0.10;0.10;;;;;;;;;;5126790;28;20092;-42
2023/09/21 05:12:57;;;;;;;0.10;0.10;;;;;;;;;;5126751;28;20111;-43
2023/09/21 05:15:23;;;;;;;0.10;0.10;;;;;;;;;;5126196;28;20087;-43
2023/09/21 05:17:49;;;;;;;0.10;0.10;;;;;;;;;;5126818;28;20051;-41
2023/09/21 05:20:15;;;;;;;0.10;0.10;;;;;;;;;;5118248;28;20046;-42
2023/09/21 05:22:42;;;;;;;0.10;0.10;;;;;;;;;;5115366;27;20451;-43
2023/09/21 05:25:09;;;;;;;0.10;0.10;;;;;;;;;;5121760;28;20359;-43
2023/09/21 05:27:35;;;;;;;0.10;0.10;;;;;;;;;;5124553;28;20523;-43
2023/09/21 05:30:01;;;;;;;0.10;0.10;;;;;;;;;;5126918;28;20051;-42
2023/09/21 05:32:29;;;;;;;0.10;0.10;;;;;;;;;;5126263;28;20176;-43
2023/09/21 05:34:56;;;;;;;;;;;;;;;;;;5125762;27;20051;-43
2023/09/21 05:37:22;;;;;;;0.10;0.10;;;;;;;;;;5126114;28;19966;-42
2023/09/21 05:39:48;;;;;;;0.10;0.10;;;;;;;;;;5126561;28;20055;-43
2023/09/21 05:42:15;;;;;;;0.10;0.10;;;;;;;;;;5122302;28;20488;-43
2023/09/21 05:44:42;;;;;;;0.10;0.10;;;;;;;;;;5120031;28;20051;-42
2023/09/21 05:47:08;;;;;;;0.10;0.10;;;;;;;;;;5115552;27;20043;-48
2023/09/21 05:49:36;;;;;;;0.10;0.10;;;;;;;;;;5121410;28;20335;-44
2023/09/21 05:52:03;;;;;;;0.10;0.10;;;;;;;;;;5115727;28;20055;-42
2023/09/21 05:54:29;;;;;;;0.10;0.10;;;;;;;;;;5116016;27;20062;-44
2023/09/21 05:56:55;;;;;;;0.10;0.10;;;;;;;;;;5117875;28;20035;-42
2023/09/21 05:59:22;;;;;;;0.10;0.10;;;;;;;;;;5109564;27;20130;-42
2023/09/21 06:01:48;;;;;;;0.20;0.20;;;;;;;;;;5108486;28;20103;-42
2023/09/21 06:04:16;;;;;;;0.10;0.10;;;;;;;;;;5087627;28;20074;-44
2023/09/21 06:06:43;;;;;;;0.10;0.10;;;;;;;;;;5107694;27;20443;-43
2023/09/21 06:09:10;;;;;;;0.10;0.10;;;;;;;;;;5112440;27;20768;-41
2023/09/21 06:11:36;;;;;;;0.10;0.10;;;;;;;;;;5109686;28;20054;-42
2023/09/21 06:14:02;;;;;;;0.10;0.10;;;;;;;;;;5106783;27;20044;-44
2023/09/21 06:16:29;;;;;;;0.10;0.10;;;;;;;;;;5111136;28;20393;-42
2023/09/21 06:18:55;;;;;;;0.10;0.10;;;;;;;;;;5116842;27;20127;-42
2023/09/21 06:21:20;;;;;;;0.10;0.10;;;;;;;;;;5121501;27;20134;-41
2023/09/21 06:23:49;;;;;;;0.10;0.10;;;;;;;;;;5116427;27;20048;-42
2023/09/21 06:26:15;;;;;;;0.10;0.10;;;;;;;;;;5111614;28;20047;-44
2023/09/21 06:28:44;;;;;;;0.10;0.10;;;;;;;;;;5118264;28;20095;-42
2023/09/21 06:31:12;;;;;;;0.10;0.10;;;;;;;;;;5093259;28;20100;-42
2023/09/21 06:33:39;;;;;;;0.10;0.10;;;;;;;;;;5111342;28;20298;-42
2023/09/21 06:36:05;;;;;;;0.10;0.10;;;;;;;;;;5116780;28;20043;-42
2023/09/21 06:38:30;;;;;;;0.10;0.10;;;;;;;;;;5117854;28;20400;-43
2023/09/21 06:40:57;;;;;;;0.10;0.10;;;;;;;;;;5125929;27;20047;-41
2023/09/21 06:43:26;;;;;;;0.10;0.10;;;;;;;;;;5115671;28;20318;-42
2023/09/21 06:45:51;;;;;;;0.10;0.10;;;;;;;;;;5124042;27;20462;-41
2023/09/21 06:48:17;;;;;;;0.10;0.10;;;;;;;;;;5115789;27;20039;-42
2023/09/21 06:50:43;;;;;;;0.10;0.10;;;;;;;;;;5116540;28;20043;-42
2023/09/21 06:53:08;;;;;;;0.10;0.10;;;;;;;;;;5111698;27;20303;-42
2023/09/21 06:55:34;;;;;;;0.10;0.10;;;;;;;;;;5106036;27;20580;-43
2023/09/21 06:58:00;;;;;;;0.10;0.10;;;;;;;;;;5104396;27;20126;-41
2023/09/21 07:00:26;;;;;;;0.10;0.10;;;;;;;;;;5109068;28;20255;-43
2023/09/21 07:02:53;;;;;;;0.10;0.10;;;;;;;;;;5101722;27;20134;-42
2023/09/21 07:05:19;;;;;;;0.10;0.10;;;;;;;;;;5089092;27;20051;-41
2023/09/21 07:07:45;;;;;;;0.13;0.13;;;;;;;;;;5099056;28;20279;-44
2023/09/21 07:10:11;;;;;;;0.40;0.30;;;;;;;;;;5093531;28;20043;-41
2023/09/21 07:12:38;;;;;;;0.10;0.10;;;;;;;;;;5107936;28;20484;-42
2023/09/21 07:15:04;;;;;;;0.10;0.10;;;;;;;;;;5111904;28;20138;-51
2023/09/21 07:17:29;;;;;;;0.10;0.10;;;;;;;;;;5091020;27;20047;-41
2023/09/21 07:19:55;;;;;;;0.10;0.10;;;;;;;;;;5104486;27;20101;-42
2023/09/21 07:22:20;;;;;;;0.10;0.10;;;;;;;;;;5110917;27;20043;-42
2023/09/21 07:24:47;;;;;;;0.10;0.10;;;;;;;;;;5111987;27;20047;-42
2023/09/21 07:27:14;;;;;;;0.10;0.10;;;;;;;;;;5113616;27;20043;-44
2023/09/21 07:29:40;;;;;;;0.10;0.10;;;;;;;;;;5114496;27;20051;-42
2023/09/21 07:32:08;;;;;;;0.20;0.20;;;;;;;;;;5111037;27;20150;-42
2023/09/21 07:34:36;;;;;;;0.10;0.10;;;;;;;;;;5117093;28;20066;-43
2023/09/21 07:37:01;;;;;;;0.47;0.40;;;;;;;;;;5100863;27;20567;-44
2023/09/21 07:39:28;;;;;;;0.10;0.10;;;;;;;;;;5115598;27;20055;-43
2023/09/21 07:41:54;;;;;;;0.10;0.10;;;;;;;;;;5110399;27;20066;-43
2023/09/21 07:44:20;;;;;;;0.13;0.13;;;;;;;;;;5109993;27;20420;-43
2023/09/21 07:46:46;;;;;;;0.10;0.10;;;;;;;;;;5111529;28;20156;-42
2023/09/21 07:49:12;;;;;;;0.10;0.10;;;;;;;;;;5108085;27;20044;-41
2023/09/21 07:51:38;;;;;;;0.10;0.10;;;;;;;;;;5107857;27;20048;-42
2023/09/21 07:54:03;;;;;;;0.10;0.10;;;;;;;;;;5112453;27;20067;-42
2023/09/21 07:56:31;;;;;;;0.10;0.10;;;;;;;;;;5119589;27;20083;-41
2023/09/21 07:58:57;;;;;;;;;;;;;;;;;;5116420;27;20047;-42
2023/09/21 08:01:26;;;;;;;0.10;0.10;;;;;;;;;;5112613;27;20108;-43
2023/09/21 08:03:52;;;;;;;0.10;0.10;;;;;;;;;;5109528;27;20091;-42
2023/09/21 08:06:20;;;;;;;0.10;0.10;;;;;;;;;;5101196;28;20062;-45
2023/09/21 08:08:46;;;;;;;0.10;0.10;;;;;;;;;;5098141;27;20082;-43
2023/09/21 08:11:12;;;;;;;0.10;0.10;;;;;;;;;;5104959;28;20130;-46
2023/09/21 08:13:38;;;;;;;0.10;0.10;;;;;;;;;;5089527;28;20428;-49
2023/09/21 08:16:04;;;;;;;0.10;0.10;;;;;;;;;;5102804;27;20050;-42
2023/09/21 08:18:29;;;;;;;0.10;0.10;;;;;;;;;;5114327;28;20459;-41
2023/09/21 08:20:55;;;;;;;0.10;0.10;;;;;;;;;;5109130;27;20050;-43
2023/09/21 08:23:21;;;;;;;0.10;0.10;;;;;;;;;;5116796;27;20371;-46
2023/09/21 08:25:47;;;;;;;0.10;0.10;;;;;;;;;;5107855;27;20209;-46
2023/09/21 08:28:12;;;;;;;0.10;0.10;;;;;;;;;;5100789;28;20628;-43
2023/09/21 08:30:38;;;;;;;0.20;0.20;;;;;;;;;;5108698;27;20523;-44
2023/09/21 08:33:07;;;;;;;0.10;0.10;;;;;;;;;;5099103;27;20051;-45
2023/09/21 08:35:33;;;;;;;;;;;;;;;;;;5101117;27;20721;-43
2023/09/21 08:37:59;;;;;;;0.10;0.10;;;;;;;;;;5102149;27;19927;-42
2023/09/21 08:40:25;;;;;;;0.10;0.10;;;;;;;;;;5107651;27;20043;-42
2023/09/21 08:42:52;;;;;;;0.10;0.10;;;;;;;;;;5105505;27;20163;-43
2023/09/21 08:45:19;;;;;;;0.10;0.10;;;;;;;;;;5111951;27;20272;-43
2023/09/21 08:47:46;;;;;;;0.10;0.10;;;;;;;;;;5110015;28;20092;-43
2023/09/21 08:50:13;;;;;;;0.10;0.10;;;;;;;;;;5115748;27;20522;-43
2023/09/21 08:52:41;;;;;;;0.10;0.10;;;;;;;;;;5108979;28;20523;-44
2023/09/21 08:55:10;;;;;;;0.10;0.10;;;;;;;;;;5100304;28;20047;-44
2023/09/21 08:57:36;;;;;;;0.10;0.10;;;;;;;;;;5103962;28;20323;-44
2023/09/21 09:00:06;;;;;;;0.10;0.10;;;;;;;;;;5102463;28;20450;-42
2023/09/21 09:02:35;;;;;;;0.10;0.10;;;;;;;;;;5084544;28;20054;-43
2023/09/21 09:05:04;;;;;;;0.10;0.10;;;;;;;;;;5105483;27;20065;-42
2023/09/21 09:07:31;;;;;;;0.10;0.10;;;;;;;;;;5105296;28;20711;-42
2023/09/21 09:09:57;;;;;;;0.10;0.10;;;;;;;;;;5106338;28;20062;-45
2023/09/21 09:12:23;;;;;;;0.10;0.10;;;;;;;;;;5110068;28;20051;-46
2023/09/21 09:14:49;;;;;;;0.10;0.10;;;;;;;;;;5107014;28;20039;-43
2023/09/21 09:17:15;;;;;;;0.10;0.10;;;;;;;;;;5108693;28;20047;-43
2023/09/21 09:19:41;;;;;;;0.10;0.10;;;;;;;;;;5106435;27;20095;-43
2023/09/21 09:22:10;;;;;;;0.10;0.10;;;;;;;;;;5104074;27;20051;-43
2023/09/21 09:24:37;;;;;;;0.10;0.10;;;;;;;;;;5106241;28;21143;-43
2023/09/21 09:27:03;;;;;;;0.43;0.40;;;;;;;;;;5108564;28;20104;-43
2023/09/21 09:29:30;;;;;;;0.10;0.10;;;;;;;;;;5105126;28;21134;-45
2023/09/21 09:31:56;;;;;;;0.10;0.10;;;;;;;;;;5104685;27;21100;-43
2023/09/21 09:34:22;;;;;;;0.10;0.10;;;;;;;;;;5102264;28;20485;-42
2023/09/21 09:36:51;;;;;;;0.10;0.10;;;;;;;;;;5096596;27;20058;-42
2023/09/21 09:39:18;;;;;;;0.10;0.10;;;;;;;;;;5104679;27;20071;-43
2023/09/21 09:41:46;;;;;;;0.10;0.10;;;;;;;;;;5105035;27;20124;-45
2023/09/21 09:44:13;;;;;;;0.10;0.10;;;;;;;;;;5110210;28;20491;-43
2023/09/21 09:46:41;;;;;;;0.10;0.10;;;;;;;;;;5105237;27;20480;-43
2023/09/21 09:49:07;;;;;;;0.10;0.10;;;;;;;;;;5110262;28;20082;-42
2023/09/21 09:51:37;;;;;;;0.10;0.10;;;;;;;;;;5119274;28;20047;-42
2023/09/21 09:54:03;;;;;;;0.10;0.10;;;;;;;;;;5096478;28;20264;-43
2023/09/21 09:56:29;;;;;;;0.10;0.10;;;;;;;;;;5103153;28;20075;-44
2023/09/21 09:58:57;;;;;;;0.10;0.10;;;;;;;;;;5120588;27;20074;-43
2023/09/21 10:01:25;;;;;;;0.10;0.10;;;;;;;;;;5123113;28;20051;-43
2023/09/21 10:03:52;;;;;;;0.10;0.10;;;;;;;;;;5116636;27;20051;-43
2023/09/21 10:06:18;;;;;;;0.10;0.10;;;;;;;;;;5116294;27;20047;-42
2023/09/21 10:08:46;;;;;;;0.10;0.10;;;;;;;;;;5123028;28;20061;-43
2023/09/21 10:11:13;;;;;;;0.10;0.10;;;;;;;;;;5119730;27;20107;-42
2023/09/21 10:13:54;;;;;;;0.10;0.10;;;;;;;;;;5117434;28;20043;-43
2023/09/21 10:16:20;;;;;;;0.10;0.10;;;;;;;;;;5118229;28;20043;-43
2023/09/21 10:18:50;;;;;;;0.10;0.10;;;;;;;;;;5116516;28;20154;-42
2023/09/21 10:21:23;;;;;;;0.10;0.10;;;;;;;;;;5122089;27;20054;-43
2023/09/21 10:24:09;;;;;;;0.10;0.10;;;;;;;;;;5122249;28;20059;-44
2023/09/21 10:26:38;;;;;;;0.10;0.10;;;;;;;;;;5105839;28;20552;-44
2023/09/21 10:29:04;;;;;;;0.10;0.10;;;;;;;;;;5119532;27;20096;-41
2023/09/21 10:31:30;;;;;;;0.10;0.10;;;;;;;;;;5113755;27;20066;-41
2023/09/21 10:33:59;;;;;;;0.10;0.10;;;;;;;;;;5118565;27;20222;-41
2023/09/21 10:36:28;;;;;;;0.10;0.10;;;;;;;;;;5116257;27;20039;-42
2023/09/21 10:41:45;;;;;;;0.10;0.10;;;;;;;;;;5137389;27;20205;-42
2023/09/21 10:44:13;;;;;;;0.10;0.10;;;;;;;;;;5110441;27;20870;-46
2023/09/21 10:46:41;;;;;;;0.10;0.10;;;;;;;;;;5117114;27;20321;-43
2023/09/21 10:49:14;;;;;;;0.10;0.10;;;;;;;;;;5125895;27;20051;-44
2023/09/21 10:51:40;;;;;;;0.10;0.10;;;;;;;;;;5123420;27;20447;-42
2023/09/21 10:54:06;;;;;;;0.10;0.10;;;;;;;;;;5130587;27;20436;-43
2023/09/21 10:56:36;;;;;;;0.10;0.10;;;;;;;;;;5132557;27;20069;-43
2023/09/21 10:59:02;;;;;;;0.10;0.10;;;;;;;;;;5139390;27;20051;-43
2023/09/21 11:01:27;;;;;;;0.10;0.10;;;;;;;;;;5129410;27;20092;-44
2023/09/21 11:03:53;;;;;;;0.10;0.10;;;;;;;;;;5127724;27;20050;-45
2023/09/21 11:06:19;;;;;;;0.10;0.10;;;;;;;;;;5126643;27;20384;-45
2023/09/21 11:08:46;;;;;;;0.10;0.10;;;;;;;;;;5126073;27;20094;-43
2023/09/21 11:11:12;;;;;;;0.10;0.10;;;;;;;;;;5130293;27;20051;-46
2023/09/21 11:13:39;;;;;;;0.10;0.10;;;;;;;;;;5131977;27;20115;-44
2023/09/21 11:16:05;;;;;;;0.10;0.10;;;;;;;;;;5132334;27;20047;-44
2023/09/21 11:18:31;;;;;;;0.10;0.10;;;;;;;;;;5126452;27;20568;-43
2023/09/21 11:20:58;;;;;;;0.10;0.10;;;;;;;;;;5134384;27;20047;-43
2023/09/21 11:23:24;;;;;;;0.10;0.10;;;;;;;;;;5122027;27;20380;-42
2023/09/21 11:25:50;;;;;;;0.10;0.10;;;;;;;;;;5125496;27;20347;-43
2023/09/21 11:28:19;;;;;;;0.10;0.10;;;;;;;;;;5114826;27;20471;-44
2023/09/21 11:30:45;;;;;;;0.10;0.10;;;;;;;;;;5128137;27;20093;-43
2023/09/21 11:33:12;;;;;;;0.10;0.10;;;;;;;;;;5118914;27;20092;-42
2023/09/21 11:35:38;;;;;;;0.10;0.10;;;;;;;;;;5127698;27;20051;-44
2023/09/21 11:38:04;;;;;;;0.10;0.10;;;;;;;;;;5122746;27;20066;-44
2023/09/21 11:40:29;;;;;;;0.10;0.10;;;;;;;;;;5126545;27;20043;-43
2023/09/21 11:42:57;;;;;;;0.10;0.10;;;;;;;;;;5137398;27;20774;-45
2023/09/21 11:45:24;;;;;;;0.10;0.10;;;;;;;;;;5131125;27;20103;-43
2023/09/21 11:47:52;;;;;;;0.10;0.10;;;;;;;;;;5131432;27;20675;-43
2023/09/21 11:50:25;;;;;;;0.10;0.10;;;;;;;;;;5138858;27;20055;-45
2023/09/21 11:52:54;;;;;;;0.10;0.10;;;;;;;;;;5122824;27;20753;-42
2023/09/21 11:55:21;;;;;;;0.17;0.10;;;;;;;;;;5114860;27;20044;-42
2023/09/21 11:57:46;;;;;;;0.10;0.10;;;;;;;;;;5113869;27;20043;-42
2023/09/21 12:00:17;;;;;;;0.10;0.10;;;;;;;;;;5110446;28;20070;-43
2023/09/21 12:02:44;;;;;;;0.10;0.10;;;;;;;;;;5121902;28;20604;-42
2023/09/21 12:05:11;;;;;;;0.10;0.10;;;;;;;;;;5124239;27;20097;-42
2023/09/21 12:07:37;;;;;;;0.10;0.10;;;;;;;;;;5112754;27;20474;-44
2023/09/21 12:10:03;;;;;;;0.10;0.10;;;;;;;;;;5124051;28;20088;-42
2023/09/21 12:12:29;;;;;;;0.10;0.10;;;;;;;;;;5115714;27;20070;-44
2023/09/21 12:14:54;;;;;;;0.10;0.10;;;;;;;;;;5119926;27;20039;-44
2023/09/21 12:17:20;;;;;;;0.10;0.10;;;;;;;;;;5122271;28;20466;-42
2023/09/21 12:19:46;;;;;;;0.10;0.10;;;;;;;;;;5116867;27;20050;-42
2023/09/21 12:22:12;;;;;;;0.10;0.10;;;;;;;;;;5118699;27;20127;-42
2023/09/21 12:24:37;;;;;;;0.10;0.10;;;;;;;;;;5115667;27;20154;-43
2023/09/21 12:27:05;;;;;;;0.10;0.10;;;;;;;;;;5121574;28;20050;-43
2023/09/21 12:29:31;;;;;;;0.10;0.10;;;;;;;;;;5117151;27;20130;-43
2023/09/21 12:31:56;;;;;;;0.10;0.10;;;;;;;;;;5107660;27;20137;-42
2023/09/21 12:34:26;;;;;;;0.10;0.10;;;;;;;;;;5107839;27;20290;-42
2023/09/21 12:36:52;;;;;;;0.10;0.10;;;;;;;;;;5106539;27;20419;-42
2023/09/21 12:39:18;;;;;;;0.10;0.10;;;;;;;;;;5116623;27;20531;-42
2023/09/21 12:41:44;;;;;;;0.10;0.10;;;;;;;;;;5109944;28;20054;-45
2023/09/21 12:44:10;;;;;;;0.10;0.10;;;;;;;;;;5116618;27;20278;-42
2023/09/21 12:46:37;;;;;;;0.10;0.10;;;;;;;;;;5120904;27;20080;-44
2023/09/21 12:49:04;;;;;;;0.10;0.10;;;;;;;;;;5115287;27;20423;-45
2023/09/21 12:51:30;;;;;;;0.10;0.10;;;;;;;;;;5116739;27;20421;-44
2023/09/21 12:53:57;;;;;;;0.10;0.10;;;;;;;;;;5116456;27;20535;-43
2023/09/21 12:56:23;;;;;;;0.10;0.10;;;;;;;;;;5122335;27;20051;-43
2023/09/21 12:58:48;;;;;;;0.10;0.10;;;;;;;;;;5114474;27;20055;-42
2023/09/21 13:01:15;;;;;;;0.10;0.10;;;;;;;;;;5114330;27;20046;-42
2023/09/21 13:03:41;;;;;;;0.10;0.10;;;;;;;;;;5116507;28;20067;-42
2023/09/21 13:06:07;;;;;;;0.10;0.10;;;;;;;;;;5115221;27;20256;-43
2023/09/21 13:08:32;;;;;;;0.10;0.10;;;;;;;;;;5119859;27;20058;-42
2023/09/21 13:10:58;;;;;;;0.10;0.10;;;;;;;;;;5122721;27;21523;-42
2023/09/21 13:13:24;;;;;;;0.10;0.10;;;;;;;;;;5122748;27;20055;-42
2023/09/21 13:15:50;;;;;;;0.10;0.10;;;;;;;;;;5122371;27;20144;-42
2023/09/21 13:18:16;;;;;;;0.10;0.10;;;;;;;;;;5113948;27;20058;-43
2023/09/21 13:20:42;;;;;;;0.10;0.10;;;;;;;;;;5115239;27;20039;-42
2023/09/21 13:23:08;;;;;;;0.10;0.10;;;;;;;;;;5119474;28;20450;-44
2023/09/21 13:25:35;;;;;;;0.10;0.10;;;;;;;;;;5128735;27;20053;-43
2023/09/21 13:28:00;;;;;;;0.10;0.10;;;;;;;;;;5097418;28;20040;-42
2023/09/21 13:30:26;;;;;;;0.10;0.10;;;;;;;;;;5118291;28;20344;-43
2023/09/21 13:32:52;;;;;;;0.10;0.10;;;;;;;;;;5114720;28;20051;-41
2023/09/21 13:35:18;;;;;;;0.10;0.10;;;;;;;;;;5117491;27;20051;-42
2023/09/21 13:37:44;;;;;;;0.10;0.10;;;;;;;;;;5107416;27;20143;-44
2023/09/21 13:40:10;;;;;;;0.10;0.10;;;;;;;;;;5123825;28;20074;-42
2023/09/21 13:42:39;;;;;;;0.20;0.20;;;;;;;;;;5115947;27;20054;-43
2023/09/21 13:45:07;;;;;;;0.10;0.10;;;;;;;;;;5137872;27;20096;-45
2023/09/21 13:47:33;;;;;;;0.10;0.10;;;;;;;;;;5108605;27;20100;-42
2023/09/21 13:49:58;;;;;;;0.10;0.10;;;;;;;;;;5123693;27;20043;-42
2023/09/21 13:52:24;;;;;;;0.20;0.20;;;;;;;;;;5113312;28;20046;-43
2023/09/21 13:54:49;;;;;;;0.10;0.10;;;;;;;;;;5115844;27;20146;-44
2023/09/21 13:57:31;;;;;;;0.20;0.20;;;;;;;;;;5146633;27;20073;-43
2023/09/21 13:59:57;;;;;;;0.10;0.10;;;;;;;;;;5127815;28;20051;-44
2023/09/21 14:02:23;;;;;;;0.10;0.10;;;;;;;;;;5127753;28;20108;-43
2023/09/21 14:04:49;;;;;;;0.10;0.10;;;;;;;;;;5127009;27;20535;-42
2023/09/21 14:07:15;;;;;;;0.10;0.10;;;;;;;;;;5127077;28;20047;-43
2023/09/21 14:09:41;;;;;;;0.10;0.10;;;;;;;;;;5142336;27;20085;-43
2023/09/21 14:12:07;;;;;;;0.10;0.10;;;;;;;;;;5127056;27;20039;-44
2023/09/21 14:14:34;;;;;;;0.10;0.10;;;;;;;;;;5141900;27;20051;-41
2023/09/21 14:17:00;;;;;;;0.10;0.10;;;;;;;;;;5126914;27;20043;-43
2023/09/21 14:19:25;;;;;;;0.10;0.10;;;;;;;;;;5126676;27;20556;-43
2023/09/21 14:21:52;;;;;;;0.10;0.10;;;;;;;;;;5126962;28;20047;-43
2023/09/21 14:24:17;;;;;;;0.10;0.10;;;;;;;;;;5125694;28;20070;-44
2023/09/21 14:26:43;;;;;;;0.10;0.10;;;;;;;;;;5126584;27;20408;-42
2023/09/21 14:29:09;;;;;;;0.10;0.10;;;;;;;;;;5126384;27;20103;-41
2023/09/21 14:31:34;;;;;;;0.10;0.10;;;;;;;;;;5125318;27;20043;-45
2023/09/21 14:34:00;;;;;;;0.10;0.10;;;;;;;;;;5124239;27;20479;-46
2023/09/21 14:36:25;;;;;;;0.10;0.10;;;;;;;;;;5125930;27;20112;-43
2023/09/21 14:38:51;;;;;;;0.10;0.10;;;;;;;;;;5123184;27;20066;-43
2023/09/21 14:41:16;;;;;;;0.10;0.10;;;;;;;;;;5125175;28;20110;-44
2023/09/21 14:43:42;;;;;;;0.10;0.10;;;;;;;;;;5127206;27;20047;-44